Terminal Aerodrome Forecast
Issued by NWS Kansas City/Pleasant Hill, MO

Home | Current Version | Previous Version | Text Only | Print | Product List | Glossary On
Versions: 1 2 3 4 5 6 7 8 9 10 11 12 13 14 15 16
000
FTUS43 KEAX 012300
TAFMCI
TAF
KMCI 012321Z 0200/0224 32006KT P6SM SCT025 BKN100
     FM020200 VRB03KT P6SM SCT100
     FM021500 11008KT P6SM SCT080=

USA.gov is the U.S. government's official web portal to all federal, state and local government web resources and services.